KMKG/MKG METAR and TAF weather

Enter ICAO airport designator
Station Type Date Time Source
KMKG METAR 2021/03/07 07:55 UTC NOAA

KMKG 070755Z AUTO 00000KT 10SM CLR M07/M11 A3038 RMK AO2 SLP297 T10671106


Station Type Date Time Source
KMKG Decoded METAR 2021/03/07 07:55 UTC NOAA

MUSKEGON COUNTY AIRPORT, MI, United States (KMKG) 43-10N 086-14W 191M
Mar 07, 2021 - 02:55 AM EST / 2021.03.07 0755 UTC
Wind: Calm:0
Visibility: 10 mile(s):0
Sky conditions: clear
Temperature: 19.9 F (-6.7 C)
Dew Point: 12.9 F (-10.6 C)
Relative Humidity: 73%
Pressure (altimeter): 30.38 in. Hg (1028 hPa)
ob: KMKG 070755Z AUTO 00000KT 10SM CLR M07/M11 A3038 RMK AO2 SLP297 T10671106
cycle: 8

Station Type Date Time Source
KMKG TAF 2021/03/07 06:24 UTC NOAA

TAF KMKG 070521Z 0706/0806 01004KT P6SM SKC
FM071700 18008KT P6SM SCT250
FM080100 14007KT P6SM BKN100

Example: see airport list